createdAt,value
2023-10-20T00:00:43.738Z,29.42
2023-10-20T00:03:11.068Z,31.48
2023-10-20T00:05:38.524Z,30.42
2023-10-20T00:08:05.887Z,32.25
2023-10-20T00:10:42.339Z,31.38
2023-10-20T00:13:09.328Z,31.30
2023-10-20T00:15:36.267Z,32.60
2023-10-20T00:18:49.796Z,32.95
2023-10-20T00:21:16.950Z,32.95
2023-10-20T00:23:43.866Z,32.08
2023-10-20T00:26:11.003Z,33.30
2023-10-20T00:28:38.036Z,30.88
2023-10-20T00:31:05.045Z,33.30
2023-10-20T00:33:32.079Z,31.27
2023-10-20T00:35:59.340Z,31.08
2023-10-20T00:38:26.323Z,30.63
2023-10-20T00:40:54.276Z,30.48
2023-10-20T00:43:21.233Z,29.90
2023-10-20T00:45:49.007Z,30.38
2023-10-20T00:48:16.614Z,29.42
2023-10-20T00:50:44.921Z,29.63
2023-10-20T00:53:12.553Z,27.55
2023-10-20T00:55:41.192Z,28.13
2023-10-20T00:58:09.653Z,28.00
2023-10-20T01:00:36.726Z,28.05
2023-10-20T01:03:04.044Z,26.45
2023-10-20T01:05:31.297Z,27.08
2023-10-20T01:07:58.360Z,28.50
2023-10-20T01:10:25.714Z,28.90
2023-10-20T01:12:52.686Z,27.90
2023-10-20T01:15:19.697Z,29.83
2023-10-20T01:17:46.866Z,30.23
2023-10-20T01:20:14.351Z,30.58
2023-10-20T01:22:42.192Z,30.95
2023-10-20T01:25:09.489Z,31.10
2023-10-20T01:27:36.409Z,31.23
2023-10-20T01:30:03.493Z,31.70
2023-10-20T01:32:30.560Z,32.03
2023-10-20T01:34:57.553Z,29.77
2023-10-20T01:37:24.470Z,28.98
2023-10-20T01:39:51.560Z,29.75
2023-10-20T01:42:18.391Z,29.38
2023-10-20T01:44:45.241Z,31.63
2023-10-20T01:47:12.201Z,29.77
2023-10-20T01:49:39.031Z,29.42
2023-10-20T01:52:06.134Z,29.02
2023-10-20T01:54:33.172Z,29.48
2023-10-20T01:57:00.226Z,28.55
2023-10-20T01:59:27.164Z,27.02
2023-10-20T02:01:54.517Z,26.73
2023-10-20T02:04:21.355Z,25.92
2023-10-20T02:06:48.319Z,27.85
2023-10-20T02:09:15.458Z,28.33
2023-10-20T02:11:42.637Z,25.27
2023-10-20T02:14:09.633Z,23.30
2023-10-20T02:16:37.408Z,25.23
2023-10-20T02:19:05.894Z,24.25
2023-10-20T02:21:32.869Z,24.08
2023-10-20T02:23:59.988Z,25.65
2023-10-20T02:26:26.900Z,23.98
2023-10-20T02:28:53.732Z,26.75
2023-10-20T02:31:20.738Z,24.75
2023-10-20T02:33:48.551Z,24.20
2023-10-20T02:36:19.821Z,24.00
2023-10-20T02:38:48.045Z,23.73
2023-10-20T02:41:18.008Z,23.95
2023-10-20T02:43:45.015Z,25.23
2023-10-20T02:46:13.696Z,24.48
2023-10-20T02:48:41.291Z,24.63
2023-10-20T02:51:12.107Z,24.05
2023-10-20T02:53:42.430Z,24.45
2023-10-20T02:56:13.795Z,26.23
2023-10-20T02:58:41.396Z,25.42
2023-10-20T03:01:09.180Z,25.45
2023-10-20T03:03:36.832Z,26.27
2023-10-20T03:06:05.205Z,28.85
2023-10-20T03:08:32.828Z,29.15
2023-10-20T03:10:59.852Z,29.92
2023-10-20T03:13:27.544Z,29.83
2023-10-20T03:15:55.322Z,30.65
2023-10-20T03:18:22.533Z,27.48
2023-10-20T03:20:50.045Z,30.83
2023-10-20T03:23:18.065Z,28.20
2023-10-20T03:25:45.218Z,31.60
2023-10-20T03:28:12.161Z,34.47
2023-10-20T03:30:39.951Z,35.00
2023-10-20T03:33:14.101Z,35.30
2023-10-20T03:35:41.947Z,35.72
2023-10-20T03:38:10.321Z,38.95
2023-10-20T03:40:39.251Z,37.80
2023-10-20T03:43:07.922Z,38.72
2023-10-20T03:45:50.872Z,37.28
2023-10-20T03:48:18.171Z,38.13
2023-10-20T03:50:45.780Z,37.03
2023-10-20T03:53:17.098Z,36.30
2023-10-20T03:55:44.321Z,35.25
2023-10-20T03:58:12.416Z,38.20
2023-10-20T04:00:43.157Z,37.45
2023-10-20T04:03:10.349Z,34.60
2023-10-20T04:05:37.449Z,31.63
2023-10-20T04:08:07.229Z,35.05
2023-10-20T04:10:35.625Z,35.55
2023-10-20T04:13:03.659Z,37.47
2023-10-20T04:15:33.956Z,38.05
2023-10-20T04:18:01.102Z,36.83
2023-10-20T04:20:28.135Z,36.33
2023-10-20T04:22:55.082Z,36.92
2023-10-20T04:25:25.234Z,36.55
2023-10-20T04:27:58.841Z,35.55
2023-10-20T04:30:44.793Z,33.63
2023-10-20T04:33:30.501Z,32.85
2023-10-20T04:36:16.144Z,33.83
2023-10-20T04:39:01.740Z,29.38
2023-10-20T04:41:47.619Z,30.42
2023-10-20T04:44:17.444Z,30.52
2023-10-20T04:47:01.827Z,30.10
2023-10-20T04:49:29.154Z,31.30
2023-10-20T04:52:28.130Z,29.48
2023-10-20T04:55:01.096Z,29.75
2023-10-20T04:57:37.379Z,30.60
2023-10-20T05:00:10.564Z,30.80
2023-10-20T05:02:47.099Z,29.10
2023-10-20T05:05:29.129Z,30.42
2023-10-20T05:08:06.457Z,31.45
2023-10-20T05:10:34.021Z,31.77
2023-10-20T05:13:01.082Z,33.50
2023-10-20T05:15:32.548Z,34.50
2023-10-20T05:17:59.595Z,33.95
2023-10-20T05:20:26.728Z,35.55
2023-10-20T05:22:53.800Z,35.05
2023-10-20T05:25:20.626Z,34.25
2023-10-20T05:27:47.473Z,36.05
2023-10-20T05:30:14.790Z,34.80
2023-10-20T05:32:41.734Z,34.25
2023-10-20T05:35:10.560Z,36.05
2023-10-20T05:37:37.674Z,36.55
2023-10-20T05:40:05.885Z,32.63
2023-10-20T05:42:33.206Z,34.42
2023-10-20T05:45:04.106Z,33.60
2023-10-20T05:47:31.767Z,33.33
2023-10-20T05:50:00.446Z,31.45
2023-10-20T05:52:27.696Z,31.23
2023-10-20T05:54:55.363Z,30.83
2023-10-20T05:57:23.687Z,30.10
2023-10-20T05:59:51.281Z,28.42
2023-10-20T06:02:18.233Z,28.77
2023-10-20T06:04:45.148Z,31.00
2023-10-20T06:07:12.312Z,32.70
2023-10-20T06:09:39.161Z,33.22
2023-10-20T06:12:08.250Z,31.45
2023-10-20T06:14:37.582Z,28.88
2023-10-20T06:17:04.777Z,30.60
2023-10-20T06:19:32.758Z,31.70
2023-10-20T06:22:01.608Z,31.92
2023-10-20T06:24:29.270Z,28.40
2023-10-20T06:27:03.802Z,27.35
2023-10-20T06:29:34.703Z,29.58
2023-10-20T06:32:08.129Z,27.83
2023-10-20T06:34:41.968Z,26.88
2023-10-20T06:37:15.509Z,26.52
2023-10-20T06:39:42.875Z,27.45
2023-10-20T06:42:10.761Z,27.58
2023-10-20T06:44:38.016Z,26.60
2023-10-20T06:47:05.860Z,24.88
2023-10-20T06:49:34.088Z,24.58
2023-10-20T06:52:05.046Z,24.35
2023-10-20T06:54:32.562Z,21.85
2023-10-20T06:57:00.621Z,22.63
2023-10-20T06:59:27.817Z,22.23
2023-10-20T07:02:01.181Z,21.67
2023-10-20T07:04:29.538Z,21.02
2023-10-20T07:06:58.635Z,21.85
2023-10-20T07:09:25.751Z,20.50
2023-10-20T07:11:53.476Z,21.15
2023-10-20T07:14:20.465Z,19.08
2023-10-20T07:16:47.766Z,19.48
2023-10-20T07:19:14.749Z,19.33
2023-10-20T07:21:41.636Z,18.25
2023-10-20T07:24:08.772Z,17.63
2023-10-20T07:26:36.141Z,18.42
2023-10-20T07:29:03.554Z,17.35
2023-10-20T07:31:30.518Z,18.23
2023-10-20T07:33:57.638Z,18.02
2023-10-20T07:36:24.582Z,17.98
2023-10-20T07:38:51.803Z,20.20
2023-10-20T07:41:18.910Z,23.20
2023-10-20T07:43:45.805Z,22.48
2023-10-20T07:46:19.173Z,23.63
2023-10-20T07:48:46.660Z,24.13
2023-10-20T07:51:13.862Z,23.92
2023-10-20T07:53:40.878Z,22.85
2023-10-20T07:56:07.819Z,22.60
2023-10-20T07:58:34.759Z,18.48
2023-10-20T08:01:04.533Z,17.80
2023-10-20T08:03:31.744Z,15.00
2023-10-20T08:06:01.271Z,14.73
2023-10-20T08:08:28.409Z,14.15
2023-10-20T08:10:55.452Z,13.93
2023-10-20T08:13:22.407Z,13.00
2023-10-20T08:15:49.317Z,12.93
2023-10-20T08:18:17.736Z,13.05
2023-10-20T08:20:44.740Z,13.00
2023-10-20T08:23:11.688Z,12.85
2023-10-20T08:25:39.164Z,14.73
2023-10-20T08:28:07.174Z,12.63
2023-10-20T08:30:35.022Z,13.23
2023-10-20T08:33:03.167Z,13.80
2023-10-20T08:35:31.665Z,14.85
2023-10-20T08:37:58.584Z,16.00
2023-10-20T08:40:26.484Z,14.68
2023-10-20T08:42:53.990Z,15.48
2023-10-20T08:45:24.310Z,14.88
2023-10-20T08:47:52.600Z,15.55
2023-10-20T08:50:21.497Z,16.55
2023-10-20T08:52:49.002Z,15.77
2023-10-20T08:55:16.001Z,16.48
2023-10-20T08:57:42.895Z,15.70
2023-10-20T09:00:20.496Z,15.52
2023-10-20T09:02:48.145Z,14.98
2023-10-20T09:05:23.918Z,15.25
2023-10-20T09:08:01.566Z,14.85
2023-10-20T09:10:28.495Z,14.57
2023-10-20T09:13:01.688Z,15.25
2023-10-20T09:15:31.390Z,14.88
2023-10-20T09:18:00.021Z,14.55
2023-10-20T09:20:27.728Z,15.15
2023-10-20T09:22:54.830Z,16.23
2023-10-20T09:25:21.757Z,14.40
2023-10-20T09:27:48.726Z,15.20
2023-10-20T09:30:16.416Z,15.02
2023-10-20T09:32:43.359Z,15.13
2023-10-20T09:35:10.539Z,14.70
2023-10-20T09:37:38.110Z,15.23
2023-10-20T09:40:10.439Z,15.10
2023-10-20T09:42:52.881Z,15.38
2023-10-20T09:45:25.927Z,14.73
2023-10-20T09:47:59.184Z,14.45
2023-10-20T09:50:26.760Z,15.48
2023-10-20T09:52:54.651Z,15.70
2023-10-20T09:55:22.302Z,15.43
2023-10-20T09:57:50.068Z,14.77
2023-10-20T10:00:28.891Z,15.07
2023-10-20T10:03:03.551Z,15.27
2023-10-20T10:05:31.483Z,14.98
2023-10-20T10:08:09.441Z,12.70
2023-10-20T10:10:39.827Z,14.90
2023-10-20T10:13:07.131Z,14.00
2023-10-20T10:15:41.758Z,13.60
2023-10-20T10:18:13.464Z,14.20
2023-10-20T10:20:45.114Z,14.75
2023-10-20T10:23:14.049Z,15.00
2023-10-20T10:25:47.301Z,13.77
2023-10-20T10:28:22.094Z,14.25
2023-10-20T10:30:55.463Z,14.55
2023-10-20T10:33:24.353Z,14.00
2023-10-20T10:36:04.747Z,14.38
2023-10-20T10:38:46.200Z,14.90
2023-10-20T10:41:13.165Z,12.90
2023-10-20T10:43:40.097Z,13.70
2023-10-20T10:46:07.875Z,14.10
2023-10-20T10:48:36.705Z,13.55
2023-10-20T10:51:06.748Z,14.25
2023-10-20T10:53:33.862Z,13.13
2023-10-20T10:56:00.825Z,13.88
2023-10-20T10:58:27.986Z,14.90
2023-10-20T11:00:55.944Z,15.05
2023-10-20T11:03:26.093Z,13.70
2023-10-20T11:05:53.772Z,14.68
2023-10-20T11:08:21.075Z,16.48
2023-10-20T11:10:48.406Z,15.88
2023-10-20T11:13:17.527Z,16.02
2023-10-20T11:15:45.461Z,14.43
2023-10-20T11:18:12.776Z,15.00
2023-10-20T11:20:45.076Z,14.07
2023-10-20T11:23:14.079Z,13.85
2023-10-20T11:25:44.411Z,14.35
2023-10-20T11:28:11.560Z,14.75
2023-10-20T11:30:40.319Z,14.73
2023-10-20T11:33:07.844Z,14.45
2023-10-20T11:35:34.949Z,13.80
2023-10-20T11:38:02.381Z,14.57
2023-10-20T11:40:29.627Z,14.55
2023-10-20T11:42:58.391Z,15.23
2023-10-20T11:45:25.847Z,15.15
2023-10-20T11:47:53.058Z,14.95
2023-10-20T11:50:20.667Z,15.25
2023-10-20T11:52:48.681Z,15.32
2023-10-20T11:55:15.984Z,14.25
2023-10-20T11:57:43.404Z,14.15
2023-10-20T12:00:12.060Z,14.43
2023-10-20T12:02:39.724Z,14.43
2023-10-20T12:05:07.854Z,14.98
2023-10-20T12:07:35.962Z,15.32
2023-10-20T12:10:05.792Z,15.43
2023-10-20T12:12:32.884Z,14.70
2023-10-20T12:15:02.318Z,15.02
2023-10-20T12:17:29.890Z,14.57
2023-10-20T12:19:56.873Z,15.10
2023-10-20T12:22:24.380Z,14.63
2023-10-20T12:24:51.627Z,13.70
2023-10-20T12:27:18.907Z,13.82
2023-10-20T12:29:45.855Z,13.38
2023-10-20T12:32:14.294Z,13.60
2023-10-20T12:34:41.674Z,13.43
2023-10-20T12:37:09.120Z,13.30
2023-10-20T12:39:36.166Z,13.82
2023-10-20T12:42:06.485Z,14.85
2023-10-20T12:44:38.283Z,14.10
2023-10-20T12:47:07.372Z,15.43
2023-10-20T12:49:34.449Z,14.63
2023-10-20T12:52:01.485Z,15.77
2023-10-20T12:54:28.337Z,15.50
2023-10-20T12:56:55.464Z,14.35
2023-10-20T12:59:22.522Z,15.38
2023-10-20T13:01:49.529Z,15.38
2023-10-20T13:04:17.621Z,16.00
2023-10-20T13:06:58.300Z,15.70
2023-10-20T13:09:27.340Z,16.63
2023-10-20T13:11:54.360Z,18.65
2023-10-20T13:14:21.387Z,16.77
2023-10-20T13:16:48.454Z,15.65
2023-10-20T13:19:16.635Z,16.98
2023-10-20T13:21:44.267Z,25.10
2023-10-20T13:24:12.394Z,19.20
2023-10-20T13:26:39.668Z,18.52
2023-10-20T13:29:07.266Z,18.15
2023-10-20T13:31:35.148Z,17.38
2023-10-20T13:34:03.818Z,19.83
2023-10-20T13:36:31.053Z,18.27
2023-10-20T13:38:58.147Z,16.83
2023-10-20T13:41:25.578Z,16.20
2023-10-20T13:43:53.280Z,17.13
2023-10-20T13:46:20.610Z,15.93
2023-10-20T13:48:48.408Z,15.20
2023-10-20T13:51:15.494Z,15.48
2023-10-20T13:53:42.541Z,14.73
2023-10-20T13:56:09.485Z,14.38
2023-10-20T13:58:36.470Z,16.38
2023-10-20T14:01:04.111Z,15.65
2023-10-20T14:03:31.342Z,16.77
2023-10-20T14:05:58.550Z,18.15
2023-10-20T14:08:25.838Z,16.50
2023-10-20T14:10:55.348Z,18.10
2023-10-20T14:13:22.391Z,17.77
2023-10-20T14:15:50.850Z,18.33
2023-10-20T14:18:18.268Z,18.33
2023-10-20T14:20:45.445Z,17.95
2023-10-20T14:23:12.448Z,17.27
2023-10-20T14:25:39.500Z,17.23
2023-10-20T14:28:07.090Z,17.20
2023-10-20T14:30:34.649Z,17.77
2023-10-20T14:33:02.004Z,18.00
2023-10-20T14:35:29.106Z,19.08
2023-10-20T14:37:57.826Z,17.98
2023-10-20T14:40:24.756Z,19.13
2023-10-20T14:42:51.549Z,18.52
2023-10-20T14:45:18.801Z,19.63
2023-10-20T14:47:45.829Z,19.27
2023-10-20T14:50:12.703Z,18.55
2023-10-20T14:52:41.326Z,19.40
2023-10-20T14:55:10.555Z,19.15
2023-10-20T14:57:37.739Z,18.95
2023-10-20T15:00:10.824Z,18.15
2023-10-20T15:02:39.530Z,19.50
2023-10-20T15:05:07.403Z,18.15
2023-10-20T15:07:37.439Z,19.88
2023-10-20T15:10:05.071Z,20.25
2023-10-20T15:12:31.972Z,20.77
2023-10-20T15:14:59.021Z,21.77
2023-10-20T15:17:26.240Z,24.30
2023-10-20T15:19:53.864Z,28.73
2023-10-20T15:22:20.882Z,30.02
2023-10-20T15:24:49.684Z,29.05
2023-10-20T15:27:19.494Z,31.38
2023-10-20T15:29:47.170Z,27.70
2023-10-20T15:32:16.583Z,27.15
2023-10-20T15:34:43.692Z,28.35
2023-10-20T15:37:10.878Z,25.33
2023-10-20T15:39:49.131Z,24.17
2023-10-20T15:42:19.947Z,23.33
2023-10-20T15:44:46.931Z,21.50
2023-10-20T15:47:14.084Z,21.70
2023-10-20T15:49:41.348Z,22.10
2023-10-20T15:52:09.260Z,24.70
2023-10-20T15:54:36.168Z,23.05
2023-10-20T15:57:03.391Z,22.08
2023-10-20T15:59:31.275Z,22.88
2023-10-20T16:01:58.194Z,22.05
2023-10-20T16:04:25.674Z,23.50
2023-10-20T16:06:52.739Z,22.83
2023-10-20T16:09:20.272Z,23.42
2023-10-20T16:11:47.551Z,24.70
2023-10-20T16:14:14.510Z,23.50
2023-10-20T16:16:41.421Z,23.80
2023-10-20T16:19:08.467Z,24.50
2023-10-20T16:21:35.282Z,25.17
2023-10-20T16:24:02.240Z,25.60
2023-10-20T16:26:29.415Z,27.30
2023-10-20T16:28:56.313Z,24.52
2023-10-20T16:31:23.525Z,24.48
2023-10-20T16:33:52.043Z,25.15
2023-10-20T16:36:19.547Z,24.90
2023-10-20T16:38:47.732Z,26.10
2023-10-20T16:41:14.732Z,25.42
2023-10-20T16:43:41.584Z,27.58
2023-10-20T16:46:08.578Z,28.67
2023-10-20T16:48:35.960Z,28.45
2023-10-20T16:51:03.248Z,29.27
2023-10-20T16:53:30.610Z,29.23
2023-10-20T16:56:01.088Z,29.75
2023-10-20T16:58:28.736Z,30.83
2023-10-20T17:01:05.458Z,31.80
2023-10-20T17:03:34.077Z,29.90
2023-10-20T17:06:05.880Z,30.00
2023-10-20T17:08:33.077Z,28.80
2023-10-20T17:11:04.580Z,27.77
2023-10-20T17:13:32.243Z,27.00
2023-10-20T17:16:05.224Z,25.55
2023-10-20T17:18:32.739Z,24.95
2023-10-20T17:21:08.797Z,24.15
2023-10-20T17:23:38.779Z,24.10
2023-10-20T17:26:07.021Z,24.35
2023-10-20T17:28:34.190Z,25.63
2023-10-20T17:31:06.112Z,27.10
2023-10-20T17:33:33.591Z,28.65
2023-10-20T17:36:06.059Z,30.58
2023-10-20T17:38:33.623Z,31.17
2023-10-20T17:41:08.724Z,29.25
2023-10-20T17:43:37.422Z,30.45
2023-10-20T17:46:09.129Z,31.50
2023-10-20T17:48:36.256Z,32.45
2023-10-20T17:51:04.003Z,32.17
2023-10-20T17:53:32.248Z,31.48
2023-10-20T17:56:04.577Z,30.38
2023-10-20T17:58:31.812Z,30.27
2023-10-20T18:01:08.707Z,31.10
2023-10-20T18:03:37.697Z,31.90
2023-10-20T18:06:18.759Z,31.65
2023-10-20T18:08:53.346Z,31.13
2023-10-20T18:11:22.018Z,28.88
2023-10-20T18:13:52.074Z,28.02
2023-10-20T18:16:21.551Z,29.02
2023-10-20T18:18:52.653Z,29.75
2023-10-20T18:21:22.541Z,28.40
2023-10-20T18:23:49.575Z,26.40
2023-10-20T18:26:17.704Z,27.92
2023-10-20T18:28:45.035Z,27.63
2023-10-20T18:31:13.767Z,26.58
2023-10-20T18:33:41.299Z,27.60
2023-10-20T18:36:08.822Z,25.98
2023-10-20T18:38:35.843Z,27.20
2023-10-20T18:41:04.391Z,27.83
2023-10-20T18:43:31.485Z,26.70
2023-10-20T18:46:01.143Z,27.13
2023-10-20T18:48:28.505Z,26.95
2023-10-20T18:51:07.597Z,25.80
2023-10-20T18:53:36.055Z,25.95
2023-10-20T18:56:04.727Z,26.40
2023-10-20T18:58:32.008Z,26.48
2023-10-20T19:01:00.071Z,27.08
2023-10-20T19:03:27.577Z,26.95
2023-10-20T19:05:54.566Z,25.92
2023-10-20T19:08:21.541Z,27.75
2023-10-20T19:10:48.443Z,27.65
2023-10-20T19:13:16.376Z,28.02
2023-10-20T19:15:46.319Z,29.25
2023-10-20T19:18:13.355Z,28.70
2023-10-20T19:20:40.314Z,30.92
2023-10-20T19:23:10.000Z,29.73
2023-10-20T19:25:39.657Z,27.98
2023-10-20T19:28:07.837Z,28.60
2023-10-20T19:30:38.096Z,30.33
2023-10-20T19:33:05.271Z,30.27
2023-10-20T19:35:34.396Z,30.17
2023-10-20T19:38:01.477Z,29.25
2023-10-20T19:40:28.352Z,28.70
2023-10-20T19:42:57.122Z,29.55
2023-10-20T19:45:24.088Z,29.20
2023-10-20T19:47:51.007Z,29.17
2023-10-20T19:50:17.930Z,30.52
2023-10-20T19:52:45.152Z,30.33
2023-10-20T19:55:12.076Z,28.50
2023-10-20T19:57:38.913Z,27.95
2023-10-20T20:00:06.700Z,28.48
2023-10-20T20:02:33.711Z,28.55
2023-10-20T20:05:01.188Z,27.95
2023-10-20T20:07:28.801Z,27.65
2023-10-20T20:09:55.642Z,26.98
2023-10-20T20:12:22.565Z,27.77
2023-10-20T20:14:49.549Z,28.63
2023-10-20T20:17:16.459Z,29.52
2023-10-20T20:19:43.410Z,31.33
2023-10-20T20:22:10.584Z,31.40
2023-10-20T20:24:37.427Z,34.80
2023-10-20T20:27:04.545Z,33.88
2023-10-20T20:29:31.586Z,34.88
2023-10-20T20:31:58.424Z,41.03
2023-10-20T20:34:25.333Z,37.72
2023-10-20T20:36:52.494Z,42.03
2023-10-20T20:39:19.685Z,44.13
2023-10-20T20:41:46.705Z,60.13
2023-10-20T20:44:13.685Z,53.92
2023-10-20T20:46:40.624Z,48.63
2023-10-20T20:49:07.477Z,56.78
2023-10-20T20:51:34.404Z,48.08
2023-10-20T20:54:02.406Z,67.35
2023-10-20T20:56:29.243Z,59.90
2023-10-20T20:58:57.373Z,73.72
2023-10-20T21:01:24.534Z,63.22
2023-10-20T21:03:51.589Z,73.00
2023-10-20T21:06:18.534Z,75.47
2023-10-20T21:08:47.676Z,53.78
2023-10-20T21:11:14.673Z,61.10
2023-10-20T21:13:43.168Z,66.18
2023-10-20T21:16:12.068Z,67.13
2023-10-20T21:18:39.484Z,71.45
2023-10-20T21:21:14.942Z,64.20
2023-10-20T21:23:45.927Z,71.78
2023-10-20T21:26:13.838Z,87.55
2023-10-20T21:28:41.001Z,71.93
2023-10-20T21:31:08.485Z,75.53
2023-10-20T21:33:35.794Z,67.35
2023-10-20T21:36:02.844Z,77.25
2023-10-20T21:38:29.851Z,76.40
2023-10-20T21:40:59.832Z,85.65
2023-10-20T21:43:26.936Z,62.60
2023-10-20T21:45:58.577Z,62.10
2023-10-20T21:48:26.138Z,76.97
2023-10-20T21:51:01.162Z,69.70
2023-10-20T21:53:30.344Z,69.88
2023-10-20T21:56:09.924Z,53.17
2023-10-20T21:58:38.420Z,65.53
2023-10-20T22:01:07.431Z,108.15
2023-10-20T22:03:34.731Z,84.32
2023-10-20T22:06:02.231Z,71.80
2023-10-20T22:08:29.144Z,71.03
2023-10-20T22:10:56.888Z,68.63
2023-10-20T22:13:23.911Z,79.78
2023-10-20T22:15:52.942Z,66.53
2023-10-20T22:18:20.412Z,90.40
2023-10-20T22:20:47.358Z,61.63
2023-10-20T22:23:14.284Z,78.55
2023-10-20T22:25:41.319Z,67.68
2023-10-20T22:28:08.293Z,63.20
2023-10-20T22:30:35.441Z,68.63
2023-10-20T22:33:02.642Z,49.45
2023-10-20T22:35:29.859Z,60.58
2023-10-20T22:37:56.920Z,65.20
2023-10-20T22:40:24.384Z,49.78
2023-10-20T22:42:51.811Z,48.10
2023-10-20T22:45:18.897Z,111.00
2023-10-20T22:47:46.194Z,66.88
2023-10-20T22:50:19.300Z,56.75
2023-10-20T22:52:50.245Z,62.13
2023-10-20T22:55:17.136Z,54.88
2023-10-20T22:57:44.235Z,54.67
2023-10-20T23:00:11.981Z,69.55
2023-10-20T23:02:40.036Z,61.88
2023-10-20T23:05:09.005Z,100.43
2023-10-20T23:07:36.125Z,71.55
2023-10-20T23:10:04.932Z,67.18
2023-10-20T23:12:36.014Z,68.93
2023-10-20T23:15:03.244Z,63.22
2023-10-20T23:17:30.186Z,84.13
2023-10-20T23:19:57.866Z,70.65
2023-10-20T23:22:26.298Z,72.10
2023-10-20T23:24:53.984Z,76.15
2023-10-20T23:27:20.842Z,75.38
2023-10-20T23:29:47.848Z,83.15
2023-10-20T23:32:14.739Z,58.80
2023-10-20T23:34:42.053Z,83.53
2023-10-20T23:37:09.143Z,78.90
2023-10-20T23:39:37.081Z,63.35
2023-10-20T23:42:05.386Z,88.90
2023-10-20T23:44:32.882Z,78.13
2023-10-20T23:46:59.819Z,65.15
2023-10-20T23:49:26.886Z,75.60
2023-10-20T23:51:53.772Z,71.32
2023-10-20T23:54:20.726Z,86.10
2023-10-20T23:56:47.753Z,110.45
2023-10-20T23:59:15.644Z,81.65
